Time;durP1;ratioP1;P1;durP2;ratioP2;P2;SDS_P1;SDS_P2;PMS_P1;PMS_P2;Temp;Humidity;BMP_temperature;BMP_pressure;BME280_temperature;BME280_humidity;BME280_pressure;Samples;Min_cycle;Max_cycle;Signal;HPM_P1;HPM_P2
2023/08/12 00:01:49;;;;;;;;;3.00;3.00;;;;;;;;4847200;29;45374;-65
2023/08/12 00:04:16;;;;;;;;;4.00;4.00;;;;;;;;4847264;29;45472;-66
2023/08/12 00:06:41;;;;;;;;;5.00;4.00;;;;;;;;4846595;29;46627;-66
2023/08/12 00:09:07;;;;;;;;;6.00;5.00;;;;;;;;4845554;29;45499;-66
2023/08/12 00:11:33;;;;;;;;;4.33;4.33;;;;;;;;4847110;29;45323;-66
2023/08/12 00:13:58;;;;;;;;;5.00;5.00;;;;;;;;4847133;29;45301;-66
2023/08/12 00:16:23;;;;;;;;;5.00;3.67;;;;;;;;4846677;29;46467;-66
2023/08/12 00:18:48;;;;;;;;;5.00;4.00;;;;;;;;4846890;29;45251;-66
2023/08/12 00:21:13;;;;;;;;;4.33;4.33;;;;;;;;4846732;29;45553;-66
2023/08/12 00:23:40;;;;;;;;;4.00;4.00;;;;;;;;4846984;29;45312;-66
2023/08/12 00:26:06;;;;;;;;;3.00;1.00;;;;;;;;4846459;29;45525;-66
2023/08/12 00:28:31;;;;;;;;;4.00;2.67;;;;;;;;4846365;29;45222;-66
2023/08/12 00:30:56;;;;;;;;;3.00;3.00;;;;;;;;4846702;29;45359;-66
2023/08/12 00:33:22;;;;;;;;;6.33;4.00;;;;;;;;4847002;29;45222;-66
2023/08/12 00:35:47;;;;;;;;;4.00;3.00;;;;;;;;4846613;29;46394;-66
2023/08/12 00:38:12;;;;;;;;;3.00;3.00;;;;;;;;4846449;29;45439;-66
2023/08/12 00:40:37;;;;;;;;;5.67;3.00;;;;;;;;4846617;29;45578;-66
2023/08/12 00:43:03;;;;;;;;;6.00;6.00;;;;;;;;4846771;29;45532;-65
2023/08/12 00:45:28;;;;;;;;;7.00;5.00;;;;;;;;4846192;29;46114;-66
2023/08/12 00:47:54;;;;;;;;;4.67;4.00;;;;;;;;4846523;29;45218;-66
2023/08/12 00:50:19;;;;;;;;;3.00;3.00;;;;;;;;4846507;29;45487;-66
2023/08/12 00:52:45;;;;;;;;;3.00;3.00;;;;;;;;4846516;29;45395;-66
2023/08/12 00:55:11;;;;;;;;;6.67;4.33;;;;;;;;4846195;29;46716;-65
2023/08/12 00:57:36;;;;;;;;;5.67;3.33;;;;;;;;4846151;29;45472;-66
2023/08/12 01:00:02;;;;;;;;;7.00;3.33;;;;;;;;4845799;29;45424;-66
2023/08/12 01:02:27;;;;;;;;;3.00;3.00;;;;;;;;4846218;29;45452;-63
2023/08/12 01:04:52;;;;;;;;;6.00;5.00;;;;;;;;4845196;29;46254;-63
2023/08/12 01:07:18;;;;;;;;;6.67;4.00;;;;;;;;4845234;29;45591;-64
2023/08/12 01:09:43;;;;;;;;;4.00;1.00;;;;;;;;4845480;29;45385;-65
2023/08/12 01:12:22;;;;;;;;;9.00;5.00;;;;;;;;4846286;29;45527;-67
2023/08/12 01:14:50;;;;;;;;;3.00;3.00;;;;;;;;4845508;29;47090;-67
2023/08/12 01:17:15;;;;;;;;;4.67;4.67;;;;;;;;4845867;29;45372;-67
2023/08/12 01:19:42;;;;;;;;;5.00;5.00;;;;;;;;4845644;29;45529;-67
2023/08/12 01:22:08;;;;;;;;;5.67;4.00;;;;;;;;4845465;29;45541;-67
2023/08/12 01:24:38;;;;;;;;;7.67;5.00;;;;;;;;4845589;29;46352;-67
2023/08/12 01:27:04;;;;;;;;;5.67;5.67;;;;;;;;4845742;29;45514;-67
2023/08/12 01:29:29;;;;;;;;;2.00;2.00;;;;;;;;4845690;29;45476;-66
2023/08/12 01:31:58;;;;;;;;;4.67;4.67;;;;;;;;4845862;29;45365;-67
2023/08/12 01:34:39;;;;;;;;;8.00;6.67;;;;;;;;4845087;29;45645;-67
2023/08/12 01:37:05;;;;;;;;;6.33;4.67;;;;;;;;4845431;29;45445;-67
2023/08/12 01:39:32;;;;;;;;;5.67;5.67;;;;;;;;4845676;29;45327;-67
2023/08/12 01:41:58;;;;;;;;;6.00;5.00;;;;;;;;4846048;29;45853;-67
2023/08/12 01:44:23;;;;;;;;;9.67;6.00;;;;;;;;4828584;29;46491;-67
2023/08/12 01:46:49;;;;;;;;;6.00;6.00;;;;;;;;4844019;29;45486;-67
2023/08/12 01:49:14;;;;;;;;;7.33;6.67;;;;;;;;4845377;29;45330;-67
2023/08/12 01:51:39;;;;;;;;;5.67;5.67;;;;;;;;4845708;29;45290;-66
2023/08/12 01:54:04;;;;;;;;;6.33;5.33;;;;;;;;4845020;29;46063;-66
2023/08/12 01:56:30;;;;;;;;;6.67;6.67;;;;;;;;4845261;29;45358;-66
2023/08/12 01:58:55;;;;;;;;;11.00;7.33;;;;;;;;4845568;29;45396;-66
2023/08/12 02:01:20;;;;;;;;;9.33;6.00;;;;;;;;4845595;29;45296;-66
2023/08/12 02:03:45;;;;;;;;;5.67;5.67;;;;;;;;4845097;29;45478;-65
2023/08/12 02:06:10;;;;;;;;;7.00;6.00;;;;;;;;4845237;29;45369;-65
2023/08/12 02:08:36;;;;;;;;;6.00;5.33;;;;;;;;4844653;29;45386;-66
2023/08/12 02:11:01;;;;;;;;;8.00;5.67;;;;;;;;4845471;29;45247;-65
2023/08/12 02:13:26;;;;;;;;;6.33;6.33;;;;;;;;4844814;29;45370;-65
2023/08/12 02:15:51;;;;;;;;;8.33;5.67;;;;;;;;4845123;29;45368;-65
2023/08/12 02:18:16;;;;;;;;;9.00;6.00;;;;;;;;4845178;29;45406;-65
2023/08/12 02:20:42;;;;;;;;;7.00;5.67;;;;;;;;4845168;29;45438;-65
2023/08/12 02:23:07;;;;;;;;;6.33;4.33;;;;;;;;4844846;29;46184;-65
2023/08/12 02:25:32;;;;;;;;;5.00;4.33;;;;;;;;4844898;29;45223;-65
2023/08/12 02:27:57;;;;;;;;;4.00;4.00;;;;;;;;4844828;29;45772;-65
2023/08/12 02:30:23;;;;;;;;;2.67;2.00;;;;;;;;4845280;29;45238;-65
2023/08/12 02:32:49;;;;;;;;;9.67;5.00;;;;;;;;4843942;29;46500;-64
2023/08/12 02:35:14;;;;;;;;;4.00;4.00;;;;;;;;4844562;29;45459;-65
2023/08/12 02:37:40;;;;;;;;;6.67;4.67;;;;;;;;4844760;29;45719;-65
2023/08/12 02:40:05;;;;;;;;;10.00;7.00;;;;;;;;4844265;29;45439;-65
2023/08/12 02:42:30;;;;;;;;;6.67;6.00;;;;;;;;4844585;29;45409;-65
2023/08/12 02:44:56;;;;;;;;;4.00;4.00;;;;;;;;4844744;29;45479;-65
2023/08/12 02:47:21;;;;;;;;;4.00;4.00;;;;;;;;4844716;29;45799;-65
2023/08/12 02:49:47;;;;;;;;;4.00;4.00;;;;;;;;4844953;29;45490;-65
2023/08/12 02:52:12;;;;;;;;;3.67;3.33;;;;;;;;4844439;29;46655;-65
2023/08/12 02:54:37;;;;;;;;;5.00;4.00;;;;;;;;4844180;29;45476;-65
2023/08/12 02:57:03;;;;;;;;;7.00;5.00;;;;;;;;4844204;29;45224;-65
2023/08/12 02:59:29;;;;;;;;;7.00;5.00;;;;;;;;4844479;29;45313;-65
2023/08/12 03:01:55;;;;;;;;;4.33;4.33;;;;;;;;4844470;29;46169;-65
2023/08/12 03:04:20;;;;;;;;;6.00;4.33;;;;;;;;4844580;29;45434;-65
2023/08/12 03:06:45;;;;;;;;;3.67;3.67;;;;;;;;4844549;29;45302;-64
2023/08/12 03:09:10;;;;;;;;;6.00;5.00;;;;;;;;4844482;29;45495;-65
2023/08/12 03:11:36;;;;;;;;;5.00;4.00;;;;;;;;4844586;29;45298;-65
2023/08/12 03:14:01;;;;;;;;;5.67;4.00;;;;;;;;4844122;29;45448;-65
2023/08/12 03:16:26;;;;;;;;;8.00;5.67;;;;;;;;4844525;29;45245;-65
2023/08/12 03:18:51;;;;;;;;;5.33;4.00;;;;;;;;4844211;29;45600;-65
2023/08/12 03:21:16;;;;;;;;;5.33;3.67;;;;;;;;4844234;29;47235;-65
2023/08/12 03:23:41;;;;;;;;;4.33;4.33;;;;;;;;4844366;29;45209;-65
2023/08/12 03:26:07;;;;;;;;;5.00;3.33;;;;;;;;4844019;29;45323;-61
2023/08/12 03:28:32;;;;;;;;;6.00;5.67;;;;;;;;4844527;29;45362;-62
2023/08/12 03:30:57;;;;;;;;;2.00;2.00;;;;;;;;4844032;29;46378;-63
2023/08/12 03:33:23;;;;;;;;;5.67;5.00;;;;;;;;4844157;29;45246;-63
2023/08/12 03:35:48;;;;;;;;;4.67;4.00;;;;;;;;4843934;29;45260;-65
2023/08/12 03:38:14;;;;;;;;;5.00;5.00;;;;;;;;4844421;29;45254;-67
2023/08/12 03:40:39;;;;;;;;;4.00;4.00;;;;;;;;4844136;29;46333;-62
2023/08/12 03:43:05;;;;;;;;;4.00;4.00;;;;;;;;4843605;29;45356;-62
2023/08/12 03:45:30;;;;;;;;;6.00;4.00;;;;;;;;4847103;29;45579;-62
2023/08/12 03:47:55;;;;;;;;;3.00;3.00;;;;;;;;4847494;29;45256;-62
2023/08/12 03:50:20;;;;;;;;;4.00;4.00;;;;;;;;4847015;29;46363;-62
2023/08/12 03:52:45;;;;;;;;;7.00;5.33;;;;;;;;4846916;29;45435;-62
2023/08/12 03:55:11;;;;;;;;;2.75;2.75;;;;;;;;4847138;29;45434;-62
2023/08/12 03:57:36;;;;;;;;;2.25;2.00;;;;;;;;4846463;29;45361;-63
2023/08/12 04:00:01;;;;;;;;;2.50;2.00;;;;;;;;4846426;29;45539;-63
2023/08/12 04:02:27;;;;;;;;;2.00;2.00;;;;;;;;4846912;29;45381;-62
2023/08/12 04:04:52;;;;;;;;;1.50;1.00;;;;;;;;4847209;29;45324;-62
2023/08/12 04:07:17;;;;;;;;;1.00;1.00;;;;;;;;4846714;29;45326;-63
2023/08/12 04:09:42;;;;;;;;;2.00;0.00;;;;;;;;4846651;29;45493;-62
2023/08/12 04:12:07;;;;;;;;;0.00;0.00;;;;;;;;4846902;29;45434;-64
2023/08/12 04:14:33;;;;;;;;;0.00;0.00;;;;;;;;4846742;29;45554;-64
2023/08/12 04:16:58;;;;;;;;;0.00;0.00;;;;;;;;4846672;29;45388;-64
2023/08/12 04:19:23;;;;;;;;;1.00;1.00;;;;;;;;4846664;29;45451;-64
2023/08/12 04:21:48;;;;;;;;;0.00;0.00;;;;;;;;4846903;29;45393;-64
2023/08/12 04:24:13;;;;;;;;;2.75;0.00;;;;;;;;4846647;29;45407;-64
2023/08/12 04:26:39;;;;;;;;;0.00;0.00;;;;;;;;4846421;29;45477;-64
2023/08/12 04:29:05;;;;;;;;;0.00;0.00;;;;;;;;4846575;29;46252;-64
2023/08/12 04:31:30;;;;;;;;;0.00;0.00;;;;;;;;4846633;29;45899;-64
2023/08/12 04:33:55;;;;;;;;;0.00;0.00;;;;;;;;4846881;29;45286;-64
2023/08/12 04:36:20;;;;;;;;;0.00;0.00;;;;;;;;4846579;29;45450;-64
2023/08/12 04:38:45;;;;;;;;;0.50;0.00;;;;;;;;4846435;29;45552;-64
2023/08/12 04:41:11;;;;;;;;;3.00;0.00;;;;;;;;4846802;29;45177;-64
2023/08/12 04:43:36;;;;;;;;;0.00;0.00;;;;;;;;4846303;29;45484;-64
2023/08/12 04:46:01;;;;;;;;;0.00;0.00;;;;;;;;4846678;29;45228;-64
2023/08/12 04:48:26;;;;;;;;;0.00;0.00;;;;;;;;4846355;29;45586;-64
2023/08/12 04:50:52;;;;;;;;;0.00;0.00;;;;;;;;4846381;29;45352;-64
2023/08/12 04:53:17;;;;;;;;;0.00;0.00;;;;;;;;4846325;29;45440;-64
2023/08/12 04:55:42;;;;;;;;;0.00;0.00;;;;;;;;4845803;29;45333;-64
2023/08/12 04:58:07;;;;;;;;;0.75;0.00;;;;;;;;4846034;29;45544;-64
2023/08/12 05:00:33;;;;;;;;;0.00;0.00;;;;;;;;4846297;29;45206;-64
2023/08/12 05:02:58;;;;;;;;;0.00;0.00;;;;;;;;4846011;29;45246;-64
2023/08/12 05:05:25;;;;;;;;;0.00;0.00;;;;;;;;4846541;29;45459;-64
2023/08/12 05:07:50;;;;;;;;;0.00;0.00;;;;;;;;4845766;29;47242;-64
2023/08/12 05:10:16;;;;;;;;;2.00;0.00;;;;;;;;4845981;29;45323;-64
2023/08/12 05:12:41;;;;;;;;;0.00;0.00;;;;;;;;4846320;29;45458;-64
2023/08/12 05:15:07;;;;;;;;;0.00;0.00;;;;;;;;4846043;29;45312;-64
2023/08/12 05:17:32;;;;;;;;;1.00;0.00;;;;;;;;4846121;29;46485;-64
2023/08/12 05:19:57;;;;;;;;;0.00;0.00;;;;;;;;4845645;29;45353;-64
2023/08/12 05:22:23;;;;;;;;;1.50;1.00;;;;;;;;4846258;29;45320;-64
2023/08/12 05:24:48;;;;;;;;;1.75;0.25;;;;;;;;4846030;29;45305;-64
2023/08/12 05:27:13;;;;;;;;;1.75;0.00;;;;;;;;4845572;29;45729;-64
2023/08/12 05:29:38;;;;;;;;;0.00;0.00;;;;;;;;4845947;29;45359;-64
2023/08/12 05:32:04;;;;;;;;;0.00;0.00;;;;;;;;4846131;29;45233;-64
2023/08/12 05:34:29;;;;;;;;;0.00;0.00;;;;;;;;4845474;29;45567;-64
2023/08/12 05:36:54;;;;;;;;;3.00;1.00;;;;;;;;4845503;29;46104;-64
2023/08/12 05:39:19;;;;;;;;;0.75;0.00;;;;;;;;4845733;29;45494;-64
2023/08/12 05:41:46;;;;;;;;;2.00;0.00;;;;;;;;4845704;29;45341;-64
2023/08/12 05:44:11;;;;;;;;;0.00;0.00;;;;;;;;4845912;29;45428;-64
2023/08/12 05:46:36;;;;;;;;;0.50;0.25;;;;;;;;4845360;29;46706;-64
2023/08/12 05:49:02;;;;;;;;;1.00;1.00;;;;;;;;4845142;29;45431;-65
2023/08/12 05:51:27;;;;;;;;;0.50;0.00;;;;;;;;4845788;29;45157;-65
2023/08/12 05:53:52;;;;;;;;;3.50;1.00;;;;;;;;4845514;29;45225;-66
2023/08/12 05:56:17;;;;;;;;;4.50;2.00;;;;;;;;4845281;29;46347;-65
2023/08/12 05:58:43;;;;;;;;;0.00;0.00;;;;;;;;4845649;29;45230;-64
2023/08/12 06:01:08;;;;;;;;;1.00;1.00;;;;;;;;4845163;29;45372;-64
2023/08/12 06:03:33;;;;;;;;;1.00;1.00;;;;;;;;4845440;29;45178;-65
2023/08/12 06:05:58;;;;;;;;;1.75;0.00;;;;;;;;4845104;29;45409;-62
2023/08/12 06:08:23;;;;;;;;;1.00;1.00;;;;;;;;4844987;29;45333;-63
2023/08/12 06:10:49;;;;;;;;;2.00;0.00;;;;;;;;4845238;29;45504;-62
2023/08/12 06:13:14;;;;;;;;;1.75;0.00;;;;;;;;4845283;29;45157;-62
2023/08/12 06:15:39;;;;;;;;;0.75;0.75;;;;;;;;4845317;29;45197;-62
2023/08/12 06:18:04;;;;;;;;;1.50;1.50;;;;;;;;4845123;29;45416;-62
2023/08/12 06:20:30;;;;;;;;;0.00;0.00;;;;;;;;4845212;29;45611;-62
2023/08/12 06:22:55;;;;;;;;;1.00;1.00;;;;;;;;4845041;29;45304;-62
2023/08/12 06:25:20;;;;;;;;;2.50;0.25;;;;;;;;4844832;29;46473;-62
2023/08/12 06:27:46;;;;;;;;;1.50;0.00;;;;;;;;4845143;29;45315;-65
2023/08/12 06:30:12;;;;;;;;;1.00;1.00;;;;;;;;4845105;29;45311;-65
2023/08/12 06:32:37;;;;;;;;;0.00;0.00;;;;;;;;4845078;29;45392;-63
2023/08/12 06:35:03;;;;;;;;;1.75;1.75;;;;;;;;4844915;29;45373;-65
2023/08/12 06:37:28;;;;;;;;;0.75;0.75;;;;;;;;4844530;29;45412;-63
2023/08/12 06:39:53;;;;;;;;;1.50;1.00;;;;;;;;4844741;29;45231;-65
2023/08/12 06:42:18;;;;;;;;;2.50;0.50;;;;;;;;4844579;29;45591;-65
2023/08/12 06:44:44;;;;;;;;;1.00;1.00;;;;;;;;4844780;29;46590;-64
2023/08/12 06:47:10;;;;;;;;;0.50;0.50;;;;;;;;4843903;29;45467;-64
2023/08/12 06:49:35;;;;;;;;;2.00;1.00;;;;;;;;4844851;29;45272;-63
2023/08/12 06:52:00;;;;;;;;;0.50;0.00;;;;;;;;4845051;29;45357;-64
2023/08/12 06:54:25;;;;;;;;;2.50;0.25;;;;;;;;4842617;29;46376;-65
2023/08/12 06:56:51;;;;;;;;;0.25;0.25;;;;;;;;4844067;29;45295;-65
2023/08/12 06:59:16;;;;;;;;;0.75;0.75;;;;;;;;4843847;29;45459;-65
2023/08/12 07:01:41;;;;;;;;;1.00;0.00;;;;;;;;4843698;29;45411;-66
2023/08/12 07:04:06;;;;;;;;;0.00;0.00;;;;;;;;4843737;29;45345;-65
2023/08/12 07:06:31;;;;;;;;;0.75;0.75;;;;;;;;4843386;29;45810;-66
2023/08/12 07:08:57;;;;;;;;;1.50;0.00;;;;;;;;4843462;29;45299;-65
2023/08/12 07:11:22;;;;;;;;;0.00;0.00;;;;;;;;4843826;29;45412;-66
2023/08/12 07:13:47;;;;;;;;;3.00;1.00;;;;;;;;4844123;29;46499;-66
2023/08/12 07:16:12;;;;;;;;;2.00;2.00;;;;;;;;4843111;29;45472;-65
2023/08/12 07:18:37;;;;;;;;;0.00;0.00;;;;;;;;4828341;29;45530;-66
2023/08/12 07:21:03;;;;;;;;;1.00;1.00;;;;;;;;4847945;29;45512;-66
2023/08/12 07:23:28;;;;;;;;;2.00;0.25;;;;;;;;4847025;29;46575;-66
2023/08/12 07:25:54;;;;;;;;;3.00;0.00;;;;;;;;4846966;29;45554;-66
2023/08/12 07:28:19;;;;;;;;;0.75;0.75;;;;;;;;4847325;29;45214;-65
2023/08/12 07:30:44;;;;;;;;;2.00;0.75;;;;;;;;4847280;29;45273;-66
2023/08/12 07:33:09;;;;;;;;;3.00;2.00;;;;;;;;4847397;29;45412;-65
2023/08/12 07:35:35;;;;;;;;;0.50;0.50;;;;;;;;4846748;29;45447;-65
2023/08/12 07:38:00;;;;;;;;;0.00;0.00;;;;;;;;4846802;29;45466;-66
2023/08/12 07:40:25;;;;;;;;;1.50;0.25;;;;;;;;4847257;29;45292;-67
2023/08/12 07:42:50;;;;;;;;;0.50;0.50;;;;;;;;4846962;29;45570;-67
2023/08/12 07:45:15;;;;;;;;;0.50;0.00;;;;;;;;4847370;29;45571;-67
2023/08/12 07:47:41;;;;;;;;;1.00;1.00;;;;;;;;4847408;29;45388;-66
2023/08/12 07:50:06;;;;;;;;;2.50;1.50;;;;;;;;4847598;29;45308;-66
2023/08/12 07:52:31;;;;;;;;;1.00;0.75;;;;;;;;4847136;29;47322;-66
2023/08/12 07:54:56;;;;;;;;;2.33;2.00;;;;;;;;4846885;29;45361;-66
2023/08/12 07:57:24;;;;;;;;;2.00;0.25;;;;;;;;4847425;29;45447;-66
2023/08/12 07:59:49;;;;;;;;;1.75;1.25;;;;;;;;4847311;29;45326;-66
2023/08/12 08:02:14;;;;;;;;;1.25;1.00;;;;;;;;4846931;29;46013;-66
2023/08/12 08:04:39;;;;;;;;;1.00;1.00;;;;;;;;4846989;29;45652;-66
2023/08/12 08:07:05;;;;;;;;;0.00;0.00;;;;;;;;4846979;29;45485;-66
2023/08/12 08:09:30;;;;;;;;;0.25;0.25;;;;;;;;4847048;29;45506;-66
2023/08/12 08:11:55;;;;;;;;;0.00;0.00;;;;;;;;4846751;29;46347;-66
2023/08/12 08:14:20;;;;;;;;;2.75;2.00;;;;;;;;4847026;29;45233;-66
2023/08/12 08:16:47;;;;;;;;;1.50;0.00;;;;;;;;4846899;29;45289;-66
2023/08/12 08:19:12;;;;;;;;;0.50;0.00;;;;;;;;4847050;29;45419;-66
2023/08/12 08:21:38;;;;;;;;;1.00;0.00;;;;;;;;4846855;29;45440;-66
2023/08/12 08:24:03;;;;;;;;;0.75;0.25;;;;;;;;4846740;29;45321;-66
2023/08/12 08:26:28;;;;;;;;;0.00;0.00;;;;;;;;4846752;29;45357;-66
2023/08/12 08:28:53;;;;;;;;;3.25;1.25;;;;;;;;4846847;29;45275;-65
2023/08/12 08:31:19;;;;;;;;;0.00;0.00;;;;;;;;4845322;29;46904;-66
2023/08/12 08:33:44;;;;;;;;;0.50;0.50;;;;;;;;4830169;29;45655;-66
2023/08/12 08:36:09;;;;;;;;;0.00;0.00;;;;;;;;4846693;29;45257;-66
2023/08/12 08:38:34;;;;;;;;;0.00;0.00;;;;;;;;4847061;29;45203;-66
2023/08/12 08:41:00;;;;;;;;;2.00;0.75;;;;;;;;4846182;29;45294;-66
2023/08/12 08:43:27;;;;;;;;;2.75;1.00;;;;;;;;4845484;29;45406;-66
2023/08/12 08:45:52;;;;;;;;;2.00;0.00;;;;;;;;4862414;29;45481;-66
2023/08/12 08:48:19;;;;;;;;;1.50;0.00;;;;;;;;4865178;29;45325;-66
2023/08/12 08:50:45;;;;;;;;;3.00;1.50;;;;;;;;4851491;29;46491;-67
2023/08/12 08:53:12;;;;;;;;;1.00;1.00;;;;;;;;4845901;29;45343;-66
2023/08/12 08:55:38;;;;;;;;;2.00;2.00;;;;;;;;4845108;29;45670;-66
2023/08/12 08:58:03;;;;;;;;;0.25;0.25;;;;;;;;4846586;29;45495;-66
2023/08/12 09:00:29;;;;;;;;;0.00;0.00;;;;;;;;4846080;29;45381;-66
2023/08/12 09:02:55;;;;;;;;;2.00;0.75;;;;;;;;4859150;29;45399;-66
2023/08/12 09:05:20;;;;;;;;;4.00;2.00;;;;;;;;4864617;29;45338;-66
2023/08/12 09:07:46;;;;;;;;;7.67;5.00;;;;;;;;4864467;29;45382;-67
2023/08/12 09:10:11;;;;;;;;;1.00;1.00;;;;;;;;4864621;29;46296;-66
2023/08/12 09:12:37;;;;;;;;;1.00;0.50;;;;;;;;4864424;29;45300;-65
2023/08/12 09:15:04;;;;;;;;;2.75;2.25;;;;;;;;4864706;29;45432;-65
2023/08/12 09:17:29;;;;;;;;;4.00;2.75;;;;;;;;4864633;29;45570;-65
2023/08/12 09:19:54;;;;;;;;;0.75;0.75;;;;;;;;4864331;29;45537;-65
2023/08/12 09:22:20;;;;;;;;;1.00;1.00;;;;;;;;4864771;29;45484;-65
2023/08/12 09:24:45;;;;;;;;;2.50;1.00;;;;;;;;4864476;29;45243;-66
2023/08/12 09:27:11;;;;;;;;;19.00;18.33;;;;;;;;4864654;29;45285;-66
2023/08/12 09:29:36;;;;;;;;;1.50;1.00;;;;;;;;4864197;29;47389;-65
2023/08/12 09:32:11;;;;;;;;;1.00;1.00;;;;;;;;4864282;29;45381;-65
2023/08/12 09:34:36;;;;;;;;;1.00;1.00;;;;;;;;4864422;29;45641;-66
2023/08/12 09:37:02;;;;;;;;;0.50;0.50;;;;;;;;4864530;29;45705;-66
2023/08/12 09:39:28;;;;;;;;;3.00;0.00;;;;;;;;4850587;29;45514;-65
2023/08/12 09:41:53;;;;;;;;;1.00;1.00;;;;;;;;4845050;29;45243;-65
2023/08/12 09:44:19;;;;;;;;;5.33;5.33;;;;;;;;4845498;29;45212;-66
2023/08/12 09:46:44;;;;;;;;;0.75;0.75;;;;;;;;4845700;29;45238;-65
2023/08/12 09:49:09;;;;;;;;;2.75;1.00;;;;;;;;4845108;29;45341;-65
2023/08/12 09:51:36;;;;;;;;;2.33;0.00;;;;;;;;4845493;29;45345;-65
2023/08/12 09:54:02;;;;;;;;;1.00;1.00;;;;;;;;4845606;29;45447;-66
2023/08/12 09:56:30;;;;;;;;;3.00;2.33;;;;;;;;4845352;29;45456;-66
2023/08/12 09:58:56;;;;;;;;;2.33;2.33;;;;;;;;4845394;29;45645;-65
2023/08/12 10:01:21;;;;;;;;;3.00;0.00;;;;;;;;4845260;29;45529;-66
2023/08/12 10:03:48;;;;;;;;;1.67;0.00;;;;;;;;4845459;29;45300;-65
2023/08/12 10:06:14;;;;;;;;;2.33;0.67;;;;;;;;4845654;29;45362;-66
2023/08/12 10:08:40;;;;;;;;;0.00;0.00;;;;;;;;4853371;29;45475;-65
2023/08/12 10:11:05;;;;;;;;;9.00;9.00;;;;;;;;4863646;29;45252;-65
2023/08/12 10:13:30;;;;;;;;;2.67;0.67;;;;;;;;4863846;29;45228;-65
2023/08/12 10:15:56;;;;;;;;;1.33;0.00;;;;;;;;4864039;29;45429;-64
2023/08/12 10:18:22;;;;;;;;;0.00;0.00;;;;;;;;4857411;29;46262;-64
2023/08/12 10:20:47;;;;;;;;;0.00;0.00;;;;;;;;4863508;29;45442;-64
2023/08/12 10:23:15;;;;;;;;;1.00;0.00;;;;;;;;4863397;29;45307;-64
2023/08/12 10:25:42;;;;;;;;;0.33;0.33;;;;;;;;4863644;29;45695;-64
2023/08/12 10:28:08;;;;;;;;;0.00;0.00;;;;;;;;4856422;29;45717;-64
2023/08/12 10:30:34;;;;;;;;;0.67;0.67;;;;;;;;4843881;29;45434;-64
2023/08/12 10:33:00;;;;;;;;;1.33;0.00;;;;;;;;4827276;29;45980;-64
2023/08/12 10:35:40;;;;;;;;;0.00;0.00;;;;;;;;4844358;29;45435;-64
2023/08/12 10:38:05;;;;;;;;;0.00;0.00;;;;;;;;4844103;29;46290;-64
2023/08/12 10:40:31;;;;;;;;;0.33;0.00;;;;;;;;4844740;29;45439;-64
2023/08/12 10:42:56;;;;;;;;;0.00;0.00;;;;;;;;4844476;29;45499;-64
2023/08/12 10:45:21;;;;;;;;;1.00;0.00;;;;;;;;4845093;29;45253;-64
2023/08/12 10:47:49;;;;;;;;;1.33;0.00;;;;;;;;4844115;29;45608;-64
2023/08/12 10:50:18;;;;;;;;;4.00;4.00;;;;;;;;4844787;29;45251;-65
2023/08/12 10:52:45;;;;;;;;;0.00;0.00;;;;;;;;4844091;29;45319;-65
2023/08/12 10:55:18;;;;;;;;;0.00;0.00;;;;;;;;4844104;29;45508;-64
2023/08/12 10:57:43;;;;;;;;;1.67;0.33;;;;;;;;4844355;29;46713;-65
2023/08/12 11:00:16;;;;;;;;;0.00;0.00;;;;;;;;4844404;29;45355;-64
2023/08/12 11:02:44;;;;;;;;;0.33;0.00;;;;;;;;4844853;29;45473;-65
2023/08/12 11:05:10;;;;;;;;;0.00;0.00;;;;;;;;4844774;29;45470;-65
2023/08/12 11:07:41;;;;;;;;;2.00;0.67;;;;;;;;4843508;29;46291;-66
2023/08/12 11:10:09;;;;;;;;;0.33;0.33;;;;;;;;4844233;29;45295;-65
2023/08/12 11:12:34;;;;;;;;;2.00;0.00;;;;;;;;4844190;29;45457;-65
2023/08/12 11:15:00;;;;;;;;;1.33;0.67;;;;;;;;4844443;29;45499;-64
2023/08/12 11:17:30;;;;;;;;;1.67;1.00;;;;;;;;4849920;29;45588;-65
2023/08/12 11:19:55;;;;;;;;;1.00;0.33;;;;;;;;4859301;29;45377;-65
2023/08/12 11:22:20;;;;;;;;;3.67;0.67;;;;;;;;4862813;29;45238;-64
2023/08/12 11:24:46;;;;;;;;;0.67;0.67;;;;;;;;4863136;29;45279;-65
2023/08/12 11:27:12;;;;;;;;;1.67;1.67;;;;;;;;4858654;29;46257;-61
2023/08/12 11:29:38;;;;;;;;;17.33;16.00;;;;;;;;4842395;29;45480;-61
2023/08/12 11:32:03;;;;;;;;;2.67;0.00;;;;;;;;4843530;29;45416;-60
2023/08/12 11:34:29;;;;;;;;;3.33;1.67;;;;;;;;4843667;29;45373;-60
2023/08/12 11:36:55;;;;;;;;;3.00;2.67;;;;;;;;4843544;29;46738;-65
2023/08/12 11:39:21;;;;;;;;;2.67;2.00;;;;;;;;4843171;29;45412;-62
2023/08/12 11:41:46;;;;;;;;;1.00;1.00;;;;;;;;4843274;29;45406;-64
2023/08/12 11:44:15;;;;;;;;;5.00;2.33;;;;;;;;4843498;29;45470;-64
2023/08/12 11:46:40;;;;;;;;;4.00;2.33;;;;;;;;4843006;29;46745;-64
2023/08/12 11:49:05;;;;;;;;;2.00;2.00;;;;;;;;4843152;29;45537;-64
2023/08/12 11:51:30;;;;;;;;;1.00;1.00;;;;;;;;4843328;29;45280;-65
2023/08/12 11:53:55;;;;;;;;;1.00;1.00;;;;;;;;4843080;29;45652;-64
2023/08/12 11:56:21;;;;;;;;;2.00;1.00;;;;;;;;4843305;29;46178;-63
2023/08/12 11:58:49;;;;;;;;;0.67;0.67;;;;;;;;4842546;29;45334;-64
2023/08/12 12:01:15;;;;;;;;;2.67;1.00;;;;;;;;4843292;29;45493;-63
2023/08/12 12:03:40;;;;;;;;;1.33;1.33;;;;;;;;4843262;29;45360;-63
2023/08/12 12:06:06;;;;;;;;;4.00;2.67;;;;;;;;4845011;29;46532;-65
2023/08/12 12:08:32;;;;;;;;;1.67;1.00;;;;;;;;4845904;29;45389;-65
2023/08/12 12:11:03;;;;;;;;;1.00;1.00;;;;;;;;4846037;29;45485;-65
2023/08/12 12:13:29;;;;;;;;;1.00;1.00;;;;;;;;4846033;29;45383;-65
2023/08/12 12:15:54;;;;;;;;;3.00;3.00;;;;;;;;4845947;29;45432;-65
2023/08/12 12:18:20;;;;;;;;;0.33;0.33;;;;;;;;4846653;29;45463;-66
2023/08/12 12:20:55;;;;;;;;;2.00;1.00;;;;;;;;4847113;29;45310;-65
2023/08/12 12:23:20;;;;;;;;;2.33;1.00;;;;;;;;4847227;29;45241;-65
2023/08/12 12:25:45;;;;;;;;;5.33;3.67;;;;;;;;4846532;29;46267;-65
2023/08/12 12:28:11;;;;;;;;;1.00;1.00;;;;;;;;4846207;29;45273;-65
2023/08/12 12:30:36;;;;;;;;;2.67;2.00;;;;;;;;4846704;29;45295;-66
2023/08/12 12:33:01;;;;;;;;;5.00;2.00;;;;;;;;4846219;29;45296;-62
2023/08/12 12:35:26;;;;;;;;;5.00;2.00;;;;;;;;4846467;29;45600;-63
2023/08/12 12:37:51;;;;;;;;;1.00;1.00;;;;;;;;4846318;29;45316;-62
2023/08/12 12:40:17;;;;;;;;;4.00;2.00;;;;;;;;4846765;29;45416;-62
2023/08/12 12:42:42;;;;;;;;;2.33;1.00;;;;;;;;4846332;29;45447;-64
2023/08/12 12:45:07;;;;;;;;;0.00;0.00;;;;;;;;4846550;29;46365;-65
2023/08/12 12:47:33;;;;;;;;;1.00;1.00;;;;;;;;4845274;29;45673;-66
2023/08/12 12:49:58;;;;;;;;;4.00;2.33;;;;;;;;4851445;29;45494;-65
2023/08/12 12:52:23;;;;;;;;;1.33;1.33;;;;;;;;4853486;29;45483;-65
2023/08/12 12:54:48;;;;;;;;;1.33;1.33;;;;;;;;4851177;29;45760;-65
2023/08/12 12:57:14;;;;;;;;;3.33;2.00;;;;;;;;4852265;29;45230;-65
2023/08/12 12:59:39;;;;;;;;;3.33;2.00;;;;;;;;4855082;29;45374;-65
2023/08/12 13:02:04;;;;;;;;;3.33;3.33;;;;;;;;4853887;29;45431;-65
2023/08/12 13:04:29;;;;;;;;;2.00;2.00;;;;;;;;4847607;29;46774;-66
2023/08/12 13:06:55;;;;;;;;;1.67;1.00;;;;;;;;4855235;29;45809;-66
2023/08/12 13:09:20;;;;;;;;;5.00;3.00;;;;;;;;4853755;29;45266;-65
2023/08/12 13:11:45;;;;;;;;;1.33;1.00;;;;;;;;4855052;29;45999;-66
2023/08/12 13:14:10;;;;;;;;;1.00;1.00;;;;;;;;4850246;29;46485;-66
2023/08/12 13:16:36;;;;;;;;;1.67;1.67;;;;;;;;4845056;29;46085;-65
2023/08/12 13:19:01;;;;;;;;;2.00;1.00;;;;;;;;4845818;29;45329;-64
2023/08/12 13:21:27;;;;;;;;;1.00;1.00;;;;;;;;4845959;29;45468;-65
2023/08/12 13:23:52;;;;;;;;;1.00;1.00;;;;;;;;4851107;29;46422;-65
2023/08/12 13:26:18;;;;;;;;;5.67;1.67;;;;;;;;4853532;29;45399;-65
2023/08/12 13:28:43;;;;;;;;;1.00;1.00;;;;;;;;4854541;29;45464;-66
2023/08/12 13:31:09;;;;;;;;;1.00;1.00;;;;;;;;4847599;29;45452;-65
2023/08/12 13:33:34;;;;;;;;;1.00;1.00;;;;;;;;4844611;29;46351;-65
2023/08/12 13:35:59;;;;;;;;;3.33;3.33;;;;;;;;4844747;29;45369;-65
2023/08/12 13:38:25;;;;;;;;;1.00;1.00;;;;;;;;4844942;29;45348;-65
2023/08/12 13:40:50;;;;;;;;;3.00;1.00;;;;;;;;4844428;29;45524;-65
2023/08/12 13:43:15;;;;;;;;;4.00;1.00;;;;;;;;4845012;29;47145;-66
2023/08/12 13:45:40;;;;;;;;;3.00;1.00;;;;;;;;4844658;29;45203;-65
2023/08/12 13:48:06;;;;;;;;;1.00;1.00;;;;;;;;4843601;29;45539;-65
2023/08/12 13:50:32;;;;;;;;;3.33;1.67;;;;;;;;4845638;29;45513;-66
2023/08/12 13:53:00;;;;;;;;;1.33;1.00;;;;;;;;4844902;29;46727;-66
2023/08/12 13:55:26;;;;;;;;;1.00;1.00;;;;;;;;4845030;29;45448;-65
2023/08/12 13:57:52;;;;;;;;;2.00;2.00;;;;;;;;4845462;29;45498;-66
2023/08/12 14:00:17;;;;;;;;;1.67;1.33;;;;;;;;4845692;29;45296;-66
2023/08/12 14:02:43;;;;;;;;;1.00;1.00;;;;;;;;4844461;29;45477;-66
2023/08/12 14:05:10;;;;;;;;;4.00;1.33;;;;;;;;4845099;29;45726;-66
2023/08/12 14:07:35;;;;;;;;;3.00;2.00;;;;;;;;4845123;29;45327;-66
2023/08/12 14:10:00;;;;;;;;;2.67;1.33;;;;;;;;4845457;29;45347;-65
2023/08/12 14:12:25;;;;;;;;;2.33;1.00;;;;;;;;4840614;29;46695;-62
2023/08/12 14:14:51;;;;;;;;;1.67;1.00;;;;;;;;4843923;29;45384;-62
2023/08/12 14:17:18;;;;;;;;;2.33;0.00;;;;;;;;4844361;29;45281;-63
2023/08/12 14:19:43;;;;;;;;;2.00;1.00;;;;;;;;4844390;29;45390;-62
2023/08/12 14:22:09;;;;;;;;;2.67;2.00;;;;;;;;4844165;29;46664;-62
2023/08/12 14:24:34;;;;;;;;;2.33;1.33;;;;;;;;4843270;29;45435;-62
2023/08/12 14:26:59;;;;;;;;;1.33;1.00;;;;;;;;4846471;29;45389;-63
2023/08/12 14:29:24;;;;;;;;;1.00;1.00;;;;;;;;4842983;29;45413;-64
2023/08/12 14:31:50;;;;;;;;;5.00;1.00;;;;;;;;4844065;29;46182;-66
2023/08/12 14:34:16;;;;;;;;;1.67;1.67;;;;;;;;4844232;29;45415;-66